sensor_id;sensor_type;location;lat;lon;timestamp;P1;durP1;ratioP1;P2;durP2;ratioP2
55190;SDS011;41070;50.360;18.742;2022-08-25T01:35:05;7.60;;;2.90;;
55190;SDS011;41070;50.360;18.742;2022-08-25T02:50:50;6.70;;;3.60;;
55190;SDS011;41070;50.360;18.742;2022-08-25T02:53:29;7.70;;;3.90;;
55190;SDS011;41070;50.360;18.742;2022-08-25T02:56:02;5.90;;;3.30;;
55190;SDS011;41070;50.360;18.742;2022-08-25T02:58:41;6.80;;;3.50;;
55190;SDS011;41070;50.360;18.742;2022-08-25T03:01:14;7.90;;;3.30;;
55190;SDS011;41070;50.360;18.742;2022-08-25T03:03:54;8.60;;;3.30;;
55190;SDS011;41070;50.360;18.742;2022-08-25T03:06:28;7.60;;;3.90;;
55190;SDS011;41070;50.360;18.742;2022-08-25T03:09:08;9.60;;;4.80;;
55190;SDS011;41070;50.360;18.742;2022-08-25T03:11:41;5.50;;;3.60;;
55190;SDS011;41070;50.360;18.742;2022-08-25T03:14:17;6.00;;;4.20;;
55190;SDS011;41070;50.360;18.742;2022-08-25T03:16:57;10.10;;;3.90;;
55190;SDS011;41070;50.360;18.742;2022-08-25T03:22:15;7.30;;;4.00;;
55190;SDS011;41070;50.360;18.742;2022-08-25T03:24:52;7.80;;;3.70;;
55190;SDS011;41070;50.360;18.742;2022-08-25T03:27:44;6.10;;;4.30;;
55190;SDS011;41070;50.360;18.742;2022-08-25T03:30:19;8.10;;;4.30;;
55190;SDS011;41070;50.360;18.742;2022-08-25T03:32:57;7.60;;;3.70;;
55190;SDS011;41070;50.360;18.742;2022-08-25T03:35:35;11.40;;;4.40;;
55190;SDS011;41070;50.360;18.742;2022-08-25T03:38:12;8.10;;;4.00;;
55190;SDS011;41070;50.360;18.742;2022-08-25T03:40:46;5.10;;;3.60;;
55190;SDS011;41070;50.360;18.742;2022-08-25T03:43:27;9.50;;;4.00;;
55190;SDS011;41070;50.360;18.742;2022-08-25T03:46:05;7.30;;;3.70;;
55190;SDS011;41070;50.360;18.742;2022-08-25T03:48:45;8.20;;;3.80;;
55190;SDS011;41070;50.360;18.742;2022-08-25T03:51:23;7.50;;;4.30;;
55190;SDS011;41070;50.360;18.742;2022-08-25T03:54:19;9.50;;;4.40;;
55190;SDS011;41070;50.360;18.742;2022-08-25T03:57:00;5.00;;;3.20;;
55190;SDS011;41070;50.360;18.742;2022-08-25T03:59:38;7.30;;;3.30;;
55190;SDS011;41070;50.360;18.742;2022-08-25T04:02:18;7.90;;;4.30;;
55190;SDS011;41070;50.360;18.742;2022-08-25T04:04:56;8.90;;;5.00;;
55190;SDS011;41070;50.360;18.742;2022-08-25T04:07:36;7.30;;;4.40;;
55190;SDS011;41070;50.360;18.742;2022-08-25T04:10:09;8.50;;;4.10;;
55190;SDS011;41070;50.360;18.742;2022-08-25T04:12:48;7.30;;;4.10;;
55190;SDS011;41070;50.360;18.742;2022-08-25T04:15:24;6.50;;;4.70;;
55190;SDS011;41070;50.360;18.742;2022-08-25T04:18:07;8.50;;;4.10;;
55190;SDS011;41070;50.360;18.742;2022-08-25T04:21:12;8.10;;;4.40;;
55190;SDS011;41070;50.360;18.742;2022-08-25T04:23:58;9.50;;;4.40;;
55190;SDS011;41070;50.360;18.742;2022-08-25T04:26:52;9.10;;;4.90;;
55190;SDS011;41070;50.360;18.742;2022-08-25T04:29:56;9.80;;;4.60;;
55190;SDS011;41070;50.360;18.742;2022-08-25T04:32:41;7.10;;;4.60;;
55190;SDS011;41070;50.360;18.742;2022-08-25T04:35:50;5.70;;;4.60;;
55190;SDS011;41070;50.360;18.742;2022-08-25T04:38:33;9.80;;;4.70;;
55190;SDS011;41070;50.360;18.742;2022-08-25T04:41:11;10.10;;;4.90;;
55190;SDS011;41070;50.360;18.742;2022-08-25T04:43:43;7.20;;;4.70;;
55190;SDS011;41070;50.360;18.742;2022-08-25T04:46:30;11.30;;;5.40;;
55190;SDS011;41070;50.360;18.742;2022-08-25T04:49:12;7.30;;;5.00;;
55190;SDS011;41070;50.360;18.742;2022-08-25T04:52:14;5.90;;;4.50;;
55190;SDS011;41070;50.360;18.742;2022-08-25T04:55:01;6.30;;;4.20;;
55190;SDS011;41070;50.360;18.742;2022-08-25T04:57:46;9.10;;;5.00;;
55190;SDS011;41070;50.360;18.742;2022-08-25T05:00:35;7.00;;;4.50;;
55190;SDS011;41070;50.360;18.742;2022-08-25T05:38:12;8.10;;;4.70;;
55190;SDS011;41070;50.360;18.742;2022-08-25T05:41:24;10.20;;;5.50;;
55190;SDS011;41070;50.360;18.742;2022-08-25T05:44:21;12.50;;;6.00;;
55190;SDS011;41070;50.360;18.742;2022-08-25T05:48:02;11.70;;;5.90;;
55190;SDS011;41070;50.360;18.742;2022-08-25T05:57:14;10.30;;;4.80;;
55190;SDS011;41070;50.360;18.742;2022-08-25T05:59:56;12.60;;;5.90;;
55190;SDS011;41070;50.360;18.742;2022-08-25T06:02:41;10.50;;;5.20;;
55190;SDS011;41070;50.360;18.742;2022-08-25T06:11:41;10.80;;;5.90;;
55190;SDS011;41070;50.360;18.742;2022-08-25T06:17:35;11.40;;;5.00;;
55190;SDS011;41070;50.360;18.742;2022-08-25T06:21:12;9.70;;;5.70;;
55190;SDS011;41070;50.360;18.742;2022-08-25T06:23:51;11.00;;;5.40;;
55190;SDS011;41070;50.360;18.742;2022-08-25T06:26:37;11.20;;;4.80;;
55190;SDS011;41070;50.360;18.742;2022-08-25T06:29:38;10.60;;;5.30;;
55190;SDS011;41070;50.360;18.742;2022-08-25T06:32:31;9.90;;;5.00;;
55190;SDS011;41070;50.360;18.742;2022-08-25T06:35:19;11.50;;;4.80;;
55190;SDS011;41070;50.360;18.742;2022-08-25T06:38:26;12.50;;;5.00;;
55190;SDS011;41070;50.360;18.742;2022-08-25T06:41:29;16.00;;;5.10;;
55190;SDS011;41070;50.360;18.742;2022-08-25T06:47:16;9.00;;;4.10;;
55190;SDS011;41070;50.360;18.742;2022-08-25T06:50:28;9.90;;;3.90;;
55190;SDS011;41070;50.360;18.742;2022-08-25T06:53:41;7.20;;;3.90;;
55190;SDS011;41070;50.360;18.742;2022-08-25T06:56:55;12.00;;;4.10;;
55190;SDS011;41070;50.360;18.742;2022-08-25T06:59:23;10.90;;;4.50;;
55190;SDS011;41070;50.360;18.742;2022-08-25T07:01:51;9.60;;;4.40;;
55190;SDS011;41070;50.360;18.742;2022-08-25T07:04:31;13.40;;;5.90;;
55190;SDS011;41070;50.360;18.742;2022-08-25T07:07:41;10.50;;;4.20;;
55190;SDS011;41070;50.360;18.742;2022-08-25T07:10:46;14.40;;;5.00;;
55190;SDS011;41070;50.360;18.742;2022-08-25T07:13:26;12.20;;;4.40;;
55190;SDS011;41070;50.360;18.742;2022-08-25T07:16:15;12.00;;;4.60;;
55190;SDS011;41070;50.360;18.742;2022-08-25T07:18:46;12.70;;;4.20;;
55190;SDS011;41070;50.360;18.742;2022-08-25T07:21:44;12.20;;;3.70;;
55190;SDS011;41070;50.360;18.742;2022-08-25T07:24:22;11.40;;;4.10;;
55190;SDS011;41070;50.360;18.742;2022-08-25T07:26:51;10.80;;;3.90;;
55190;SDS011;41070;50.360;18.742;2022-08-25T07:29:44;15.90;;;4.50;;
55190;SDS011;41070;50.360;18.742;2022-08-25T07:32:34;12.60;;;4.40;;
55190;SDS011;41070;50.360;18.742;2022-08-25T07:35:35;13.70;;;4.20;;
55190;SDS011;41070;50.360;18.742;2022-08-25T07:38:16;11.80;;;3.60;;
55190;SDS011;41070;50.360;18.742;2022-08-25T07:41:00;16.00;;;4.30;;
55190;SDS011;41070;50.360;18.742;2022-08-25T07:43:39;7.50;;;3.20;;
55190;SDS011;41070;50.360;18.742;2022-08-25T07:46:18;12.50;;;3.80;;
55190;SDS011;41070;50.360;18.742;2022-08-25T07:48:58;16.00;;;4.60;;
55190;SDS011;41070;50.360;18.742;2022-08-25T07:58:19;11.90;;;4.50;;
55190;SDS011;41070;50.360;18.742;2022-08-25T08:00:47;11.30;;;4.30;;
55190;SDS011;41070;50.360;18.742;2022-08-25T08:03:15;13.70;;;4.70;;
55190;SDS011;41070;50.360;18.742;2022-08-25T08:05:42;13.70;;;4.40;;
55190;SDS011;41070;50.360;18.742;2022-08-25T08:08:10;12.60;;;4.60;;
55190;SDS011;41070;50.360;18.742;2022-08-25T08:10:38;17.00;;;5.30;;
55190;SDS011;41070;50.360;18.742;2022-08-25T08:13:07;15.40;;;5.10;;
55190;SDS011;41070;50.360;18.742;2022-08-25T08:15:36;18.20;;;5.00;;
55190;SDS011;41070;50.360;18.742;2022-08-25T08:18:03;15.30;;;5.00;;
55190;SDS011;41070;50.360;18.742;2022-08-25T08:20:34;16.40;;;5.20;;
55190;SDS011;41070;50.360;18.742;2022-08-25T08:23:02;10.30;;;4.80;;
55190;SDS011;41070;50.360;18.742;2022-08-25T08:25:31;13.80;;;4.90;;
55190;SDS011;41070;50.360;18.742;2022-08-25T08:27:58;13.40;;;5.10;;
55190;SDS011;41070;50.360;18.742;2022-08-25T08:30:26;19.00;;;5.70;;
55190;SDS011;41070;50.360;18.742;2022-08-25T08:32:53;16.00;;;5.60;;
55190;SDS011;41070;50.360;18.742;2022-08-25T08:35:21;17.90;;;5.90;;
55190;SDS011;41070;50.360;18.742;2022-08-25T08:37:49;17.30;;;5.40;;
55190;SDS011;41070;50.360;18.742;2022-08-25T08:40:17;11.50;;;4.90;;
55190;SDS011;41070;50.360;18.742;2022-08-25T08:42:52;13.20;;;5.30;;
55190;SDS011;41070;50.360;18.742;2022-08-25T08:45:33;14.70;;;4.80;;
55190;SDS011;41070;50.360;18.742;2022-08-25T08:53:49;17.80;;;5.00;;
55190;SDS011;41070;50.360;18.742;2022-08-25T08:56:25;15.00;;;5.10;;
55190;SDS011;41070;50.360;18.742;2022-08-25T08:59:32;19.20;;;5.20;;
55190;SDS011;41070;50.360;18.742;2022-08-25T09:01:52;17.70;;;4.90;;
55190;SDS011;41070;50.360;18.742;2022-08-25T09:04:25;22.50;;;6.30;;
55190;SDS011;41070;50.360;18.742;2022-08-25T09:06:59;21.80;;;6.10;;
55190;SDS011;41070;50.360;18.742;2022-08-25T09:09:33;20.20;;;5.20;;
55190;SDS011;41070;50.360;18.742;2022-08-25T09:12:10;19.20;;;5.50;;
55190;SDS011;41070;50.360;18.742;2022-08-25T09:20:49;24.70;;;5.70;;
55190;SDS011;41070;50.360;18.742;2022-08-25T09:29:18;29.50;;;6.50;;
55190;SDS011;41070;50.360;18.742;2022-08-25T09:31:48;17.90;;;4.80;;
55190;SDS011;41070;50.360;18.742;2022-08-25T09:34:18;20.40;;;5.00;;
55190;SDS011;41070;50.360;18.742;2022-08-25T09:36:47;17.20;;;4.60;;
55190;SDS011;41070;50.360;18.742;2022-08-25T09:39:18;14.20;;;5.40;;
55190;SDS011;41070;50.360;18.742;2022-08-25T09:41:52;15.80;;;4.10;;
55190;SDS011;41070;50.360;18.742;2022-08-25T09:44:23;14.30;;;4.50;;
55190;SDS011;41070;50.360;18.742;2022-08-25T09:47:12;14.00;;;4.40;;
55190;SDS011;41070;50.360;18.742;2022-08-25T09:49:42;17.10;;;4.60;;
55190;SDS011;41070;50.360;18.742;2022-08-25T09:52:30;21.20;;;5.20;;
55190;SDS011;41070;50.360;18.742;2022-08-25T09:57:44;11.70;;;4.30;;
55190;SDS011;41070;50.360;18.742;2022-08-25T10:00:17;16.10;;;4.80;;
55190;SDS011;41070;50.360;18.742;2022-08-25T10:08:34;16.90;;;4.90;;
55190;SDS011;41070;50.360;18.742;2022-08-25T10:11:07;25.50;;;5.30;;
55190;SDS011;41070;50.360;18.742;2022-08-25T10:13:39;22.60;;;5.00;;
55190;SDS011;41070;50.360;18.742;2022-08-25T10:18:39;17.10;;;4.80;;
55190;SDS011;41070;50.360;18.742;2022-08-25T10:21:11;12.10;;;3.70;;
55190;SDS011;41070;50.360;18.742;2022-08-25T10:23:41;19.10;;;5.60;;
55190;SDS011;41070;50.360;18.742;2022-08-25T10:34:53;18.20;;;5.70;;
55190;SDS011;41070;50.360;18.742;2022-08-25T10:42:38;23.90;;;6.90;;
55190;SDS011;41070;50.360;18.742;2022-08-25T10:45:26;19.00;;;6.20;;
55190;SDS011;41070;50.360;18.742;2022-08-25T10:56:49;21.20;;;5.20;;
55190;SDS011;41070;50.360;18.742;2022-08-25T10:59:29;22.50;;;6.10;;
55190;SDS011;41070;50.360;18.742;2022-08-25T11:02:11;22.30;;;5.60;;
55190;SDS011;41070;50.360;18.742;2022-08-25T11:05:07;23.50;;;6.50;;
55190;SDS011;41070;50.360;18.742;2022-08-25T11:07:48;19.50;;;5.80;;
55190;SDS011;41070;50.360;18.742;2022-08-25T11:10:23;14.80;;;5.80;;
55190;SDS011;41070;50.360;18.742;2022-08-25T11:12:56;24.40;;;5.90;;
55190;SDS011;41070;50.360;18.742;2022-08-25T11:15:29;21.50;;;5.50;;
55190;SDS011;41070;50.360;18.742;2022-08-25T11:18:19;15.50;;;4.70;;
55190;SDS011;41070;50.360;18.742;2022-08-25T11:20:50;17.80;;;4.90;;
55190;SDS011;41070;50.360;18.742;2022-08-25T11:26:02;18.70;;;5.20;;
55190;SDS011;41070;50.360;18.742;2022-08-25T11:31:57;16.70;;;4.90;;
55190;SDS011;41070;50.360;18.742;2022-08-25T11:34:26;18.60;;;5.50;;
55190;SDS011;41070;50.360;18.742;2022-08-25T11:37:12;18.30;;;5.10;;
55190;SDS011;41070;50.360;18.742;2022-08-25T11:42:44;12.70;;;4.70;;
55190;SDS011;41070;50.360;18.742;2022-08-25T11:45:34;12.80;;;4.10;;
55190;SDS011;41070;50.360;18.742;2022-08-25T11:48:17;14.90;;;4.10;;
55190;SDS011;41070;50.360;18.742;2022-08-25T11:50:59;17.60;;;4.90;;
55190;SDS011;41070;50.360;18.742;2022-08-25T11:53:47;15.80;;;4.00;;
55190;SDS011;41070;50.360;18.742;2022-08-25T11:56:31;13.00;;;4.20;;
55190;SDS011;41070;50.360;18.742;2022-08-25T11:59:02;15.80;;;4.20;;
55190;SDS011;41070;50.360;18.742;2022-08-25T12:12:35;10.60;;;3.90;;
55190;SDS011;41070;50.360;18.742;2022-08-25T12:18:10;16.70;;;4.60;;
55190;SDS011;41070;50.360;18.742;2022-08-25T12:23:28;11.00;;;4.90;;
55190;SDS011;41070;50.360;18.742;2022-08-25T12:28:57;16.90;;;4.60;;
55190;SDS011;41070;50.360;18.742;2022-08-25T12:34:06;13.30;;;4.40;;
55190;SDS011;41070;50.360;18.742;2022-08-25T12:36:36;14.10;;;5.10;;
55190;SDS011;41070;50.360;18.742;2022-08-25T12:39:54;14.60;;;4.30;;
55190;SDS011;41070;50.360;18.742;2022-08-25T12:43:02;14.50;;;4.50;;
55190;SDS011;41070;50.360;18.742;2022-08-25T12:46:32;11.40;;;4.80;;
55190;SDS011;41070;50.360;18.742;2022-08-25T12:48:56;13.60;;;4.50;;
55190;SDS011;41070;50.360;18.742;2022-08-25T12:54:09;17.40;;;5.10;;
55190;SDS011;41070;50.360;18.742;2022-08-25T12:56:59;16.90;;;4.80;;
55190;SDS011;41070;50.360;18.742;2022-08-25T13:00:18;13.00;;;5.00;;
55190;SDS011;41070;50.360;18.742;2022-08-25T13:09:09;16.20;;;4.60;;
55190;SDS011;41070;50.360;18.742;2022-08-25T13:12:20;13.60;;;4.60;;
55190;SDS011;41070;50.360;18.742;2022-08-25T13:15:11;12.70;;;4.20;;
55190;SDS011;41070;50.360;18.742;2022-08-25T13:17:40;16.80;;;4.80;;
55190;SDS011;41070;50.360;18.742;2022-08-25T13:24:26;11.10;;;4.00;;
55190;SDS011;41070;50.360;18.742;2022-08-25T13:27:02;14.20;;;4.50;;
55190;SDS011;41070;50.360;18.742;2022-08-25T13:29:53;15.20;;;4.80;;
55190;SDS011;41070;50.360;18.742;2022-08-25T13:32:26;10.70;;;4.00;;
55190;SDS011;41070;50.360;18.742;2022-08-25T13:37:38;12.30;;;4.50;;
55190;SDS011;41070;50.360;18.742;2022-08-25T13:40:27;12.60;;;3.90;;
55190;SDS011;41070;50.360;18.742;2022-08-25T13:43:15;23.00;;;11.30;;
55190;SDS011;41070;50.360;18.742;2022-08-25T13:45:44;16.10;;;7.30;;
55190;SDS011;41070;50.360;18.742;2022-08-25T13:48:37;13.70;;;4.50;;
55190;SDS011;41070;50.360;18.742;2022-08-25T13:51:26;11.30;;;4.60;;
55190;SDS011;41070;50.360;18.742;2022-08-25T13:57:05;7.40;;;4.60;;
55190;SDS011;41070;50.360;18.742;2022-08-25T13:59:36;17.30;;;4.70;;
55190;SDS011;41070;50.360;18.742;2022-08-25T14:02:11;17.20;;;5.80;;
55190;SDS011;41070;50.360;18.742;2022-08-25T14:05:10;19.40;;;10.10;;
55190;SDS011;41070;50.360;18.742;2022-08-25T14:08:02;12.10;;;6.70;;
55190;SDS011;41070;50.360;18.742;2022-08-25T14:14:31;11.70;;;5.90;;
55190;SDS011;41070;50.360;18.742;2022-08-25T14:17:22;12.80;;;4.70;;
55190;SDS011;41070;50.360;18.742;2022-08-25T14:20:19;14.30;;;5.80;;
55190;SDS011;41070;50.360;18.742;2022-08-25T14:22:59;10.30;;;4.60;;
55190;SDS011;41070;50.360;18.742;2022-08-25T14:25:38;15.30;;;4.30;;
55190;SDS011;41070;50.360;18.742;2022-08-25T14:28:09;11.20;;;4.10;;
55190;SDS011;41070;50.360;18.742;2022-08-25T14:30:48;14.60;;;4.60;;
55190;SDS011;41070;50.360;18.742;2022-08-25T14:33:21;13.80;;;4.50;;
55190;SDS011;41070;50.360;18.742;2022-08-25T14:35:54;13.40;;;4.60;;
55190;SDS011;41070;50.360;18.742;2022-08-25T14:38:24;20.80;;;4.90;;
55190;SDS011;41070;50.360;18.742;2022-08-25T14:40:52;15.20;;;4.70;;
55190;SDS011;41070;50.360;18.742;2022-08-25T14:43:20;14.70;;;4.60;;
55190;SDS011;41070;50.360;18.742;2022-08-25T14:45:48;9.90;;;4.40;;
55190;SDS011;41070;50.360;18.742;2022-08-25T14:48:20;11.70;;;4.40;;
55190;SDS011;41070;50.360;18.742;2022-08-25T14:50:56;10.00;;;3.70;;
55190;SDS011;41070;50.360;18.742;2022-08-25T14:53:28;11.70;;;3.80;;
55190;SDS011;41070;50.360;18.742;2022-08-25T14:55:57;17.50;;;3.80;;
55190;SDS011;41070;50.360;18.742;2022-08-25T14:58:25;14.00;;;4.00;;
55190;SDS011;41070;50.360;18.742;2022-08-25T15:00:56;9.20;;;3.40;;
55190;SDS011;41070;50.360;18.742;2022-08-25T15:03:35;12.10;;;3.80;;
55190;SDS011;41070;50.360;18.742;2022-08-25T15:06:04;11.40;;;4.10;;
55190;SDS011;41070;50.360;18.742;2022-08-25T15:08:35;13.50;;;4.00;;
55190;SDS011;41070;50.360;18.742;2022-08-25T15:11:20;12.00;;;3.60;;
55190;SDS011;41070;50.360;18.742;2022-08-25T15:13:48;12.70;;;4.00;;
55190;SDS011;41070;50.360;18.742;2022-08-25T15:16:28;14.20;;;3.70;;
55190;SDS011;41070;50.360;18.742;2022-08-25T15:18:59;11.60;;;4.60;;
55190;SDS011;41070;50.360;18.742;2022-08-25T15:21:27;8.30;;;3.20;;
55190;SDS011;41070;50.360;18.742;2022-08-25T15:23:56;13.80;;;4.00;;
55190;SDS011;41070;50.360;18.742;2022-08-25T15:26:24;15.00;;;3.70;;
55190;SDS011;41070;50.360;18.742;2022-08-25T15:28:52;8.70;;;3.40;;
55190;SDS011;41070;50.360;18.742;2022-08-25T15:31:19;9.10;;;4.00;;
55190;SDS011;41070;50.360;18.742;2022-08-25T15:34:06;15.90;;;4.00;;
55190;SDS011;41070;50.360;18.742;2022-08-25T15:36:37;14.00;;;4.30;;
55190;SDS011;41070;50.360;18.742;2022-08-25T15:39:14;11.70;;;4.30;;
55190;SDS011;41070;50.360;18.742;2022-08-25T15:41:48;12.60;;;4.10;;
55190;SDS011;41070;50.360;18.742;2022-08-25T15:44:20;17.20;;;4.10;;
55190;SDS011;41070;50.360;18.742;2022-08-25T15:46:50;12.60;;;4.10;;
55190;SDS011;41070;50.360;18.742;2022-08-25T15:49:18;16.40;;;4.00;;
55190;SDS011;41070;50.360;18.742;2022-08-25T15:51:46;13.20;;;3.50;;
55190;SDS011;41070;50.360;18.742;2022-08-25T15:54:19;10.50;;;3.40;;
55190;SDS011;41070;50.360;18.742;2022-08-25T15:56:50;10.20;;;3.10;;
55190;SDS011;41070;50.360;18.742;2022-08-25T15:59:18;11.50;;;3.50;;
55190;SDS011;41070;50.360;18.742;2022-08-25T16:01:48;15.60;;;3.80;;
55190;SDS011;41070;50.360;18.742;2022-08-25T16:08:16;13.40;;;3.50;;
55190;SDS011;41070;50.360;18.742;2022-08-25T16:10:44;8.80;;;3.70;;
55190;SDS011;41070;50.360;18.742;2022-08-25T16:13:12;11.00;;;4.00;;
55190;SDS011;41070;50.360;18.742;2022-08-25T16:15:40;12.20;;;3.10;;
55190;SDS011;41070;50.360;18.742;2022-08-25T16:18:12;11.70;;;3.40;;
55190;SDS011;41070;50.360;18.742;2022-08-25T16:20:44;13.50;;;3.90;;
55190;SDS011;41070;50.360;18.742;2022-08-25T16:23:13;8.20;;;3.70;;
55190;SDS011;41070;50.360;18.742;2022-08-25T16:25:43;9.40;;;3.60;;
55190;SDS011;41070;50.360;18.742;2022-08-25T16:28:13;9.80;;;3.40;;
55190;SDS011;41070;50.360;18.742;2022-08-25T16:30:46;11.00;;;3.70;;
55190;SDS011;41070;50.360;18.742;2022-08-25T16:33:15;13.40;;;3.80;;
55190;SDS011;41070;50.360;18.742;2022-08-25T16:35:43;6.90;;;3.20;;
55190;SDS011;41070;50.360;18.742;2022-08-25T16:38:12;11.60;;;3.40;;
55190;SDS011;41070;50.360;18.742;2022-08-25T16:40:44;9.50;;;3.70;;
55190;SDS011;41070;50.360;18.742;2022-08-25T16:43:12;11.70;;;4.10;;
55190;SDS011;41070;50.360;18.742;2022-08-25T16:45:42;15.80;;;4.00;;
55190;SDS011;41070;50.360;18.742;2022-08-25T16:48:10;10.70;;;3.60;;
55190;SDS011;41070;50.360;18.742;2022-08-25T16:50:37;13.80;;;3.80;;
55190;SDS011;41070;50.360;18.742;2022-08-25T16:53:06;8.10;;;3.40;;
55190;SDS011;41070;50.360;18.742;2022-08-25T16:55:58;10.00;;;3.60;;
55190;SDS011;41070;50.360;18.742;2022-08-25T16:59:04;13.20;;;3.50;;
55190;SDS011;41070;50.360;18.742;2022-08-25T17:01:42;6.70;;;3.30;;
55190;SDS011;41070;50.360;18.742;2022-08-25T17:04:25;11.40;;;3.90;;
55190;SDS011;41070;50.360;18.742;2022-08-25T17:07:04;9.90;;;3.70;;
55190;SDS011;41070;50.360;18.742;2022-08-25T17:09:42;10.70;;;3.40;;
55190;SDS011;41070;50.360;18.742;2022-08-25T17:12:50;8.50;;;3.40;;
55190;SDS011;41070;50.360;18.742;2022-08-25T17:15:19;11.10;;;3.90;;
55190;SDS011;41070;50.360;18.742;2022-08-25T17:17:49;9.90;;;3.80;;
55190;SDS011;41070;50.360;18.742;2022-08-25T17:20:27;8.20;;;3.30;;
55190;SDS011;41070;50.360;18.742;2022-08-25T17:23:11;8.60;;;3.60;;
55190;SDS011;41070;50.360;18.742;2022-08-25T17:26:20;7.00;;;3.70;;
55190;SDS011;41070;50.360;18.742;2022-08-25T17:29:27;12.20;;;4.40;;
55190;SDS011;41070;50.360;18.742;2022-08-25T17:32:02;10.00;;;3.60;;
55190;SDS011;41070;50.360;18.742;2022-08-25T17:35:09;8.90;;;3.70;;
55190;SDS011;41070;50.360;18.742;2022-08-25T17:38:18;13.30;;;3.90;;
55190;SDS011;41070;50.360;18.742;2022-08-25T17:41:17;10.50;;;4.00;;
55190;SDS011;41070;50.360;18.742;2022-08-25T17:44:25;11.50;;;4.50;;
55190;SDS011;41070;50.360;18.742;2022-08-25T17:47:16;8.60;;;3.20;;
55190;SDS011;41070;50.360;18.742;2022-08-25T17:50:24;7.40;;;3.50;;
55190;SDS011;41070;50.360;18.742;2022-08-25T17:53:00;9.80;;;3.70;;
55190;SDS011;41070;50.360;18.742;2022-08-25T17:55:39;11.50;;;3.50;;
55190;SDS011;41070;50.360;18.742;2022-08-25T17:58:18;9.20;;;3.50;;
55190;SDS011;41070;50.360;18.742;2022-08-25T18:01:13;9.00;;;3.40;;
55190;SDS011;41070;50.360;18.742;2022-08-25T18:04:03;8.10;;;3.70;;
55190;SDS011;41070;50.360;18.742;2022-08-25T18:06:34;11.30;;;4.00;;
55190;SDS011;41070;50.360;18.742;2022-08-25T18:09:02;13.60;;;4.60;;
55190;SDS011;41070;50.360;18.742;2022-08-25T18:11:31;11.70;;;4.00;;
55190;SDS011;41070;50.360;18.742;2022-08-25T18:13:59;10.90;;;3.90;;
55190;SDS011;41070;50.360;18.742;2022-08-25T18:16:27;7.90;;;4.20;;
55190;SDS011;41070;50.360;18.742;2022-08-25T18:18:55;10.50;;;4.80;;
55190;SDS011;41070;50.360;18.742;2022-08-25T18:21:23;11.40;;;4.50;;
55190;SDS011;41070;50.360;18.742;2022-08-25T18:23:51;9.70;;;4.40;;
55190;SDS011;41070;50.360;18.742;2022-08-25T18:26:20;13.70;;;4.60;;
55190;SDS011;41070;50.360;18.742;2022-08-25T18:28:50;13.30;;;4.90;;
55190;SDS011;41070;50.360;18.742;2022-08-25T18:31:21;12.60;;;4.70;;
55190;SDS011;41070;50.360;18.742;2022-08-25T18:33:49;10.90;;;4.30;;
55190;SDS011;41070;50.360;18.742;2022-08-25T18:36:18;11.60;;;4.70;;
55190;SDS011;41070;50.360;18.742;2022-08-25T18:38:46;15.70;;;5.10;;
55190;SDS011;41070;50.360;18.742;2022-08-25T18:41:33;13.70;;;5.10;;
55190;SDS011;41070;50.360;18.742;2022-08-25T18:44:13;12.40;;;5.30;;
55190;SDS011;41070;50.360;18.742;2022-08-25T18:46:54;8.80;;;4.70;;
55190;SDS011;41070;50.360;18.742;2022-08-25T18:52:11;10.40;;;4.50;;
55190;SDS011;41070;50.360;18.742;2022-08-25T18:54:49;15.80;;;5.10;;
55190;SDS011;41070;50.360;18.742;2022-08-25T18:57:49;9.80;;;5.30;;
55190;SDS011;41070;50.360;18.742;2022-08-25T19:00:29;14.40;;;5.90;;
55190;SDS011;41070;50.360;18.742;2022-08-25T19:03:02;12.10;;;5.80;;
55190;SDS011;41070;50.360;18.742;2022-08-25T19:05:43;14.20;;;5.80;;
55190;SDS011;41070;50.360;18.742;2022-08-25T19:08:18;10.90;;;5.10;;
55190;SDS011;41070;50.360;18.742;2022-08-25T19:10:58;14.40;;;6.50;;
55190;SDS011;41070;50.360;18.742;2022-08-25T19:16:38;11.10;;;5.50;;
55190;SDS011;41070;50.360;18.742;2022-08-25T19:19:17;12.00;;;5.90;;
55190;SDS011;41070;50.360;18.742;2022-08-25T19:21:56;12.60;;;5.50;;
55190;SDS011;41070;50.360;18.742;2022-08-25T19:24:34;13.80;;;5.40;;
55190;SDS011;41070;50.360;18.742;2022-08-25T19:27:16;13.80;;;5.50;;
55190;SDS011;41070;50.360;18.742;2022-08-25T19:29:53;17.20;;;5.60;;
55190;SDS011;41070;50.360;18.742;2022-08-25T19:38:40;9.80;;;5.10;;
55190;SDS011;41070;50.360;18.742;2022-08-25T19:41:36;18.70;;;5.60;;
55190;SDS011;41070;50.360;18.742;2022-08-25T19:46:55;15.20;;;5.20;;
55190;SDS011;41070;50.360;18.742;2022-08-25T19:49:35;10.10;;;4.90;;
55190;SDS011;41070;50.360;18.742;2022-08-25T19:52:05;10.80;;;5.10;;
55190;SDS011;41070;50.360;18.742;2022-08-25T19:54:50;11.70;;;5.10;;
55190;SDS011;41070;50.360;18.742;2022-08-25T19:57:23;10.70;;;4.20;;
55190;SDS011;41070;50.360;18.742;2022-08-25T20:00:22;15.20;;;5.20;;
55190;SDS011;41070;50.360;18.742;2022-08-25T20:02:56;18.40;;;5.40;;
55190;SDS011;41070;50.360;18.742;2022-08-25T20:05:40;13.10;;;4.90;;
55190;SDS011;41070;50.360;18.742;2022-08-25T20:08:14;18.10;;;5.10;;
55190;SDS011;41070;50.360;18.742;2022-08-25T20:10:53;13.90;;;5.30;;
55190;SDS011;41070;50.360;18.742;2022-08-25T20:13:32;17.50;;;4.70;;
55190;SDS011;41070;50.360;18.742;2022-08-25T20:16:27;13.10;;;4.80;;
55190;SDS011;41070;50.360;18.742;2022-08-25T20:19:00;16.60;;;5.10;;
55190;SDS011;41070;50.360;18.742;2022-08-25T20:21:29;12.10;;;5.10;;
55190;SDS011;41070;50.360;18.742;2022-08-25T20:23:57;10.60;;;4.20;;
55190;SDS011;41070;50.360;18.742;2022-08-25T20:26:42;11.10;;;5.20;;
55190;SDS011;41070;50.360;18.742;2022-08-25T20:29:10;11.40;;;4.70;;
55190;SDS011;41070;50.360;18.742;2022-08-25T20:31:39;15.60;;;5.20;;
55190;SDS011;41070;50.360;18.742;2022-08-25T20:34:06;13.20;;;5.70;;
55190;SDS011;41070;50.360;18.742;2022-08-25T20:36:34;11.90;;;5.50;;
55190;SDS011;41070;50.360;18.742;2022-08-25T20:39:02;13.80;;;5.50;;
55190;SDS011;41070;50.360;18.742;2022-08-25T20:41:29;13.40;;;5.90;;
55190;SDS011;41070;50.360;18.742;2022-08-25T20:43:57;11.20;;;4.90;;
55190;SDS011;41070;50.360;18.742;2022-08-25T20:46:25;13.90;;;5.30;;
55190;SDS011;41070;50.360;18.742;2022-08-25T20:48:52;10.50;;;4.80;;
55190;SDS011;41070;50.360;18.742;2022-08-25T20:51:20;9.80;;;5.10;;
55190;SDS011;41070;50.360;18.742;2022-08-25T20:53:55;9.70;;;4.90;;
55190;SDS011;41070;50.360;18.742;2022-08-25T20:56:24;11.10;;;5.10;;
55190;SDS011;41070;50.360;18.742;2022-08-25T20:59:32;12.90;;;6.00;;
55190;SDS011;41070;50.360;18.742;2022-08-25T21:02:20;12.10;;;5.50;;
55190;SDS011;41070;50.360;18.742;2022-08-25T21:05:11;10.20;;;5.20;;
55190;SDS011;41070;50.360;18.742;2022-08-25T21:08:07;12.00;;;6.00;;
55190;SDS011;41070;50.360;18.742;2022-08-25T21:10:41;10.60;;;4.90;;
55190;SDS011;41070;50.360;18.742;2022-08-25T21:13:51;11.20;;;5.00;;
55190;SDS011;41070;50.360;18.742;2022-08-25T21:16:46;12.80;;;5.00;;
55190;SDS011;41070;50.360;18.742;2022-08-25T21:19:42;12.60;;;5.60;;
55190;SDS011;41070;50.360;18.742;2022-08-25T21:22:38;15.10;;;5.70;;
55190;SDS011;41070;50.360;18.742;2022-08-25T21:25:39;12.90;;;5.40;;
55190;SDS011;41070;50.360;18.742;2022-08-25T21:28:26;9.30;;;5.00;;
55190;SDS011;41070;50.360;18.742;2022-08-25T21:31:34;15.80;;;5.20;;
55190;SDS011;41070;50.360;18.742;2022-08-25T21:34:41;8.60;;;5.80;;